Pagrindinis puslapis
METAR-TAF:

METAR-TAF

Oro uostai :

Balikpapanas, Indonezija

platuma: 01-16-06S, ilguma: 116-53-40E, Aukštis: 4 m

Dabartinis oras

Ataskaita buvo paskelbta 2 valandos ir 35 minutes, ne 06:00 UTC
Vėjas 12 kt iš Rytų/Šiaurės Rytų
Temperatūra 30°C
Drėgmė 70%
Slėgis 1008 hPa
Matomumas 10 km arba daugiau
Išsisklaidę debesys ne aukštis 2000 ft

METAR: WALL 230600Z 07012KT 9999 SCT020 30/24 Q1008

Laikas: 15:35 (08:35 UTC)

Prognozė

Ataskaita buvo paskelbta 3 valandos ir 35 minutes, ne 05:00 UTC
Prognozė galioja nuo 23 metu 06 UTC su 24 metu 12 UTC
Vėjas 9 kt iš Šiaurės/Šiaurės Rytų
Matomumas 10 km arba daugiau
Išsisklaidę debesys ne aukštis 2000 ft
Laikinai
nuo 23 metu 06 UTC su 23 metu 09 UTC
Mažai debesys ne aukštis 1800 ft, Liūtiniai kamuoliniai debesys.
Išsisklaidę debesys ne aukštis 2000 ft
Tapsmas
nuo 23 metu 13 UTC su 23 metu 15 UTC
Vėjas 3 kt iš Šiaurės Vakarų

TAF: WALL 230500Z 2306/2412 03009KT 9999 SCT020 TEMPO 2306/2309 FEW018CB SCT020 BECMG 2313/2315 32003KT

Orai ataskaitas ir orų prognozės (METAR, TAF).

turimą stotys yra geltonos ir raudonos taškus žemėlapyje.

Perkelti pele per norėdami pamatyti stoties vardą.

Tada spustelėkite, norėdami matyti oro stebėjimo ir prognozės.

Norėdami pakeisti žemėlapį: spustelėkite ant žalios mygtukų su juodo kryžiaus žemyn,; žalią mygtuką su brūkšneliu, jei norite nutolinti; arba žalių rodyklių gretimoms žemėlapius.


METAR-TAF: